sensor_id;sensor_type;location;lat;lon;timestamp;temperature;humidity
69054;DHT22;56125;52.242;4.756;2024-03-22T00:01:22;18.50;56.40
69054;DHT22;56125;52.242;4.756;2024-03-22T00:06:23;18.50;56.40
69054;DHT22;56125;52.242;4.756;2024-03-22T00:11:24;18.50;56.40
69054;DHT22;56125;52.242;4.756;2024-03-22T00:16:25;18.50;56.40
69054;DHT22;56125;52.242;4.756;2024-03-22T00:21:26;18.50;56.50
69054;DHT22;56125;52.242;4.756;2024-03-22T00:26:28;18.50;56.40
69054;DHT22;56125;52.242;4.756;2024-03-22T00:31:29;18.50;56.40
69054;DHT22;56125;52.242;4.756;2024-03-22T00:36:30;18.50;56.30
69054;DHT22;56125;52.242;4.756;2024-03-22T00:41:31;18.50;56.40
69054;DHT22;56125;52.242;4.756;2024-03-22T00:46:32;18.50;56.40
69054;DHT22;56125;52.242;4.756;2024-03-22T00:51:33;18.40;56.30
69054;DHT22;56125;52.242;4.756;2024-03-22T00:56:34;18.40;56.30
69054;DHT22;56125;52.242;4.756;2024-03-22T01:01:35;18.40;57.20
69054;DHT22;56125;52.242;4.756;2024-03-22T01:06:36;18.40;56.20
69054;DHT22;56125;52.242;4.756;2024-03-22T01:11:37;18.40;56.20
69054;DHT22;56125;52.242;4.756;2024-03-22T01:16:38;18.50;56.20
69054;DHT22;56125;52.242;4.756;2024-03-22T01:21:40;18.40;56.30
69054;DHT22;56125;52.242;4.756;2024-03-22T01:26:41;18.40;56.20
69054;DHT22;56125;52.242;4.756;2024-03-22T01:31:43;18.40;56.20
69054;DHT22;56125;52.242;4.756;2024-03-22T01:36:44;18.40;56.20
69054;DHT22;56125;52.242;4.756;2024-03-22T01:41:45;18.40;56.20
69054;DHT22;56125;52.242;4.756;2024-03-22T01:46:48;18.40;56.10
69054;DHT22;56125;52.242;4.756;2024-03-22T01:51:49;18.40;56.20
69054;DHT22;56125;52.242;4.756;2024-03-22T01:56:50;18.40;56.10
69054;DHT22;56125;52.242;4.756;2024-03-22T02:01:51;18.40;56.10
69054;DHT22;56125;52.242;4.756;2024-03-22T02:06:52;18.40;56.10
69054;DHT22;56125;52.242;4.756;2024-03-22T02:11:53;18.40;56.20
69054;DHT22;56125;52.242;4.756;2024-03-22T02:16:55;18.40;57.20
69054;DHT22;56125;52.242;4.756;2024-03-22T02:21:56;18.40;56.20
69054;DHT22;56125;52.242;4.756;2024-03-22T02:26:57;18.40;56.20
69054;DHT22;56125;52.242;4.756;2024-03-22T02:31:58;18.40;56.10
69054;DHT22;56125;52.242;4.756;2024-03-22T02:36:59;18.40;56.20
69054;DHT22;56125;52.242;4.756;2024-03-22T02:42:00;18.40;56.10
69054;DHT22;56125;52.242;4.756;2024-03-22T02:47:01;18.40;56.10
69054;DHT22;56125;52.242;4.756;2024-03-22T02:52:02;18.30;56.40
69054;DHT22;56125;52.242;4.756;2024-03-22T02:57:03;18.30;56.10
69054;DHT22;56125;52.242;4.756;2024-03-22T03:02:04;18.40;56.10
69054;DHT22;56125;52.242;4.756;2024-03-22T03:07:05;18.40;56.10
69054;DHT22;56125;52.242;4.756;2024-03-22T03:12:06;18.40;56.10
69054;DHT22;56125;52.242;4.756;2024-03-22T03:17:07;18.40;56.10
69054;DHT22;56125;52.242;4.756;2024-03-22T03:22:08;18.30;56.00
69054;DHT22;56125;52.242;4.756;2024-03-22T03:27:10;18.30;56.00
69054;DHT22;56125;52.242;4.756;2024-03-22T03:32:11;18.30;56.00
69054;DHT22;56125;52.242;4.756;2024-03-22T03:37:12;18.30;56.00
69054;DHT22;56125;52.242;4.756;2024-03-22T03:42:13;18.30;56.00
69054;DHT22;56125;52.242;4.756;2024-03-22T03:47:14;18.30;56.00
69054;DHT22;56125;52.242;4.756;2024-03-22T03:52:16;18.30;56.00
69054;DHT22;56125;52.242;4.756;2024-03-22T03:57:17;18.30;56.00
69054;DHT22;56125;52.242;4.756;2024-03-22T04:02:18;18.30;56.00
69054;DHT22;56125;52.242;4.756;2024-03-22T04:07:22;18.30;56.00
69054;DHT22;56125;52.242;4.756;2024-03-22T04:12:23;18.30;56.00
69054;DHT22;56125;52.242;4.756;2024-03-22T04:17:24;18.30;56.00
69054;DHT22;56125;52.242;4.756;2024-03-22T04:22:25;18.30;56.00
69054;DHT22;56125;52.242;4.756;2024-03-22T04:27:26;18.30;56.00
69054;DHT22;56125;52.242;4.756;2024-03-22T04:32:27;18.30;56.00
69054;DHT22;56125;52.242;4.756;2024-03-22T04:37:28;18.30;55.90
69054;DHT22;56125;52.242;4.756;2024-03-22T04:42:29;18.30;55.90
69054;DHT22;56125;52.242;4.756;2024-03-22T04:47:30;18.30;55.90
69054;DHT22;56125;52.242;4.756;2024-03-22T04:52:31;18.30;56.00
69054;DHT22;56125;52.242;4.756;2024-03-22T04:57:32;18.30;55.90
69054;DHT22;56125;52.242;4.756;2024-03-22T05:02:33;18.30;55.90
69054;DHT22;56125;52.242;4.756;2024-03-22T05:07:34;18.30;55.90
69054;DHT22;56125;52.242;4.756;2024-03-22T05:12:36;18.30;55.90
69054;DHT22;56125;52.242;4.756;2024-03-22T05:17:37;18.30;55.80
69054;DHT22;56125;52.242;4.756;2024-03-22T05:22:38;18.20;55.70
69054;DHT22;56125;52.242;4.756;2024-03-22T05:27:39;18.20;55.70
69054;DHT22;56125;52.242;4.756;2024-03-22T05:32:40;18.30;55.80
69054;DHT22;56125;52.242;4.756;2024-03-22T05:37:42;18.30;55.70
69054;DHT22;56125;52.242;4.756;2024-03-22T05:42:43;17.20;55.10
69054;DHT22;56125;52.242;4.756;2024-03-22T05:47:44;18.30;55.70
69054;DHT22;56125;52.242;4.756;2024-03-22T05:52:45;18.30;55.70
69054;DHT22;56125;52.242;4.756;2024-03-22T05:57:46;18.30;55.60
69054;DHT22;56125;52.242;4.756;2024-03-22T06:02:47;18.30;55.70
69054;DHT22;56125;52.242;4.756;2024-03-22T06:07:48;18.30;55.70
69054;DHT22;56125;52.242;4.756;2024-03-22T06:12:49;18.30;55.60
69054;DHT22;56125;52.242;4.756;2024-03-22T06:17:50;18.30;55.60
69054;DHT22;56125;52.242;4.756;2024-03-22T06:22:52;18.30;55.60
69054;DHT22;56125;52.242;4.756;2024-03-22T06:27:53;18.30;55.70
69054;DHT22;56125;52.242;4.756;2024-03-22T06:32:54;18.30;55.60
69054;DHT22;56125;52.242;4.756;2024-03-22T06:37:58;18.30;55.50
69054;DHT22;56125;52.242;4.756;2024-03-22T06:42:59;18.30;55.50
69054;DHT22;56125;52.242;4.756;2024-03-22T06:48:00;18.40;55.50
69054;DHT22;56125;52.242;4.756;2024-03-22T06:53:01;18.40;55.40
69054;DHT22;56125;52.242;4.756;2024-03-22T06:58:02;18.40;55.40
69054;DHT22;56125;52.242;4.756;2024-03-22T07:03:03;18.40;55.40
69054;DHT22;56125;52.242;4.756;2024-03-22T07:08:05;18.40;55.30
69054;DHT22;56125;52.242;4.756;2024-03-22T07:13:06;18.40;55.20
69054;DHT22;56125;52.242;4.756;2024-03-22T07:18:07;18.40;55.20
69054;DHT22;56125;52.242;4.756;2024-03-22T07:23:08;18.40;55.20
69054;DHT22;56125;52.242;4.756;2024-03-22T07:28:09;18.40;55.20
69054;DHT22;56125;52.242;4.756;2024-03-22T07:33:11;18.40;55.20
69054;DHT22;56125;52.242;4.756;2024-03-22T07:38:17;18.40;55.30
69054;DHT22;56125;52.242;4.756;2024-03-22T07:43:18;18.40;55.10
69054;DHT22;56125;52.242;4.756;2024-03-22T07:48:19;18.40;55.10
69054;DHT22;56125;52.242;4.756;2024-03-22T07:53:20;18.40;55.10
69054;DHT22;56125;52.242;4.756;2024-03-22T07:58:21;18.50;55.20
69054;DHT22;56125;52.242;4.756;2024-03-22T08:03:22;18.40;55.20
69054;DHT22;56125;52.242;4.756;2024-03-22T08:08:24;18.50;55.20
69054;DHT22;56125;52.242;4.756;2024-03-22T08:13:26;18.40;55.20
69054;DHT22;56125;52.242;4.756;2024-03-22T08:18:27;18.50;55.10
69054;DHT22;56125;52.242;4.756;2024-03-22T08:23:28;18.50;55.20
69054;DHT22;56125;52.242;4.756;2024-03-22T08:28:29;18.50;55.20
69054;DHT22;56125;52.242;4.756;2024-03-22T08:33:30;18.50;55.10
69054;DHT22;56125;52.242;4.756;2024-03-22T08:38:31;18.50;55.20
69054;DHT22;56125;52.242;4.756;2024-03-22T08:43:32;18.50;55.10
69054;DHT22;56125;52.242;4.756;2024-03-22T08:48:33;18.50;55.20
69054;DHT22;56125;52.242;4.756;2024-03-22T08:53:34;18.50;55.20
69054;DHT22;56125;52.242;4.756;2024-03-22T08:58:35;18.50;55.30
69054;DHT22;56125;52.242;4.756;2024-03-22T09:03:37;18.50;55.20
69054;DHT22;56125;52.242;4.756;2024-03-22T09:08:38;18.50;55.10
69054;DHT22;56125;52.242;4.756;2024-03-22T09:13:39;18.50;55.20
69054;DHT22;56125;52.242;4.756;2024-03-22T09:18:40;18.60;55.20
69054;DHT22;56125;52.242;4.756;2024-03-22T09:23:41;18.50;55.20
69054;DHT22;56125;52.242;4.756;2024-03-22T09:28:42;18.50;55.70
69054;DHT22;56125;52.242;4.756;2024-03-22T09:33:43;18.50;55.20
69054;DHT22;56125;52.242;4.756;2024-03-22T09:38:44;18.50;55.20
69054;DHT22;56125;52.242;4.756;2024-03-22T09:43:48;18.60;55.30
69054;DHT22;56125;52.242;4.756;2024-03-22T09:48:52;18.60;55.30
69054;DHT22;56125;52.242;4.756;2024-03-22T09:53:55;18.60;56.40
69054;DHT22;56125;52.242;4.756;2024-03-22T09:58:59;18.60;55.30
69054;DHT22;56125;52.242;4.756;2024-03-22T10:04:01;18.60;55.30
69054;DHT22;56125;52.242;4.756;2024-03-22T10:09:02;18.60;55.30
69054;DHT22;56125;52.242;4.756;2024-03-22T10:14:05;18.60;55.30
69054;DHT22;56125;52.242;4.756;2024-03-22T10:19:06;18.60;55.30
69054;DHT22;56125;52.242;4.756;2024-03-22T10:24:07;18.60;55.40
69054;DHT22;56125;52.242;4.756;2024-03-22T10:29:08;18.50;55.30
69054;DHT22;56125;52.242;4.756;2024-03-22T10:34:13;18.50;55.40
69054;DHT22;56125;52.242;4.756;2024-03-22T10:39:17;18.60;55.40
69054;DHT22;56125;52.242;4.756;2024-03-22T10:44:20;18.60;55.40
69054;DHT22;56125;52.242;4.756;2024-03-22T10:49:21;18.60;55.50
69054;DHT22;56125;52.242;4.756;2024-03-22T10:54:30;18.60;58.30
69054;DHT22;56125;52.242;4.756;2024-03-22T10:59:35;18.60;58.60
69054;DHT22;56125;52.242;4.756;2024-03-22T11:04:36;18.60;58.60
69054;DHT22;56125;52.242;4.756;2024-03-22T11:09:37;18.60;59.30
69054;DHT22;56125;52.242;4.756;2024-03-22T11:14:38;18.60;59.50
69054;DHT22;56125;52.242;4.756;2024-03-22T11:19:39;18.60;59.90
69054;DHT22;56125;52.242;4.756;2024-03-22T11:24:41;18.60;60.40
69054;DHT22;56125;52.242;4.756;2024-03-22T11:29:42;18.60;60.40
69054;DHT22;56125;52.242;4.756;2024-03-22T11:34:44;18.60;61.00
69054;DHT22;56125;52.242;4.756;2024-03-22T11:39:48;18.60;61.00
69054;DHT22;56125;52.242;4.756;2024-03-22T11:44:50;18.60;60.90
69054;DHT22;56125;52.242;4.756;2024-03-22T11:49:52;18.60;61.50
69054;DHT22;56125;52.242;4.756;2024-03-22T11:54:53;18.60;61.50
69054;DHT22;56125;52.242;4.756;2024-03-22T11:59:59;18.60;61.50
69054;DHT22;56125;52.242;4.756;2024-03-22T12:05:01;18.60;61.60
69054;DHT22;56125;52.242;4.756;2024-03-22T12:10:02;18.60;61.60
69054;DHT22;56125;52.242;4.756;2024-03-22T12:15:04;18.60;61.40
69054;DHT22;56125;52.242;4.756;2024-03-22T12:20:09;18.60;61.70
69054;DHT22;56125;52.242;4.756;2024-03-22T12:25:10;18.60;61.50
69054;DHT22;56125;52.242;4.756;2024-03-22T12:30:12;18.60;61.60
69054;DHT22;56125;52.242;4.756;2024-03-22T12:35:13;18.60;61.70
69054;DHT22;56125;52.242;4.756;2024-03-22T12:40:15;18.60;61.80
69054;DHT22;56125;52.242;4.756;2024-03-22T12:45:16;18.50;61.60
69054;DHT22;56125;52.242;4.756;2024-03-22T12:50:17;18.60;61.80
69054;DHT22;56125;52.242;4.756;2024-03-22T12:55:18;18.60;61.80
69054;DHT22;56125;52.242;4.756;2024-03-22T13:00:19;18.60;61.80
69054;DHT22;56125;52.242;4.756;2024-03-22T13:05:20;18.60;62.00
69054;DHT22;56125;52.242;4.756;2024-03-22T13:10:21;18.50;61.80
69054;DHT22;56125;52.242;4.756;2024-03-22T13:15:23;18.60;62.00
69054;DHT22;56125;52.242;4.756;2024-03-22T13:20:24;18.60;61.60
69054;DHT22;56125;52.242;4.756;2024-03-22T13:25:25;18.50;61.80
69054;DHT22;56125;52.242;4.756;2024-03-22T13:30:26;18.60;61.60
69054;DHT22;56125;52.242;4.756;2024-03-22T13:35:27;18.60;61.70
69054;DHT22;56125;52.242;4.756;2024-03-22T13:40:29;18.60;61.60
69054;DHT22;56125;52.242;4.756;2024-03-22T13:45:30;18.60;61.50
69054;DHT22;56125;52.242;4.756;2024-03-22T13:50:31;18.60;61.60
69054;DHT22;56125;52.242;4.756;2024-03-22T13:55:32;18.60;61.60
69054;DHT22;56125;52.242;4.756;2024-03-22T14:00:33;18.50;61.40
69054;DHT22;56125;52.242;4.756;2024-03-22T14:05:35;18.50;61.20
69054;DHT22;56125;52.242;4.756;2024-03-22T14:10:37;18.60;61.20
69054;DHT22;56125;52.242;4.756;2024-03-22T14:15:38;18.60;61.00
69054;DHT22;56125;52.242;4.756;2024-03-22T14:20:40;18.60;61.20
69054;DHT22;56125;52.242;4.756;2024-03-22T14:25:41;18.60;60.60
69054;DHT22;56125;52.242;4.756;2024-03-22T14:30:42;18.60;60.50
69054;DHT22;56125;52.242;4.756;2024-03-22T14:35:43;18.50;61.20
69054;DHT22;56125;52.242;4.756;2024-03-22T14:40:44;18.50;60.80
69054;DHT22;56125;52.242;4.756;2024-03-22T14:45:46;18.60;60.90
69054;DHT22;56125;52.242;4.756;2024-03-22T14:50:47;18.50;60.70
69054;DHT22;56125;52.242;4.756;2024-03-22T14:55:59;18.60;60.90
69054;DHT22;56125;52.242;4.756;2024-03-22T15:01:04;18.50;60.20
69054;DHT22;56125;52.242;4.756;2024-03-22T15:06:10;18.60;60.40
69054;DHT22;56125;52.242;4.756;2024-03-22T15:11:11;18.60;60.40
69054;DHT22;56125;52.242;4.756;2024-03-22T15:16:12;18.60;60.40
69054;DHT22;56125;52.242;4.756;2024-03-22T15:21:13;18.50;60.10
69054;DHT22;56125;52.242;4.756;2024-03-22T15:26:14;18.50;59.80
69054;DHT22;56125;52.242;4.756;2024-03-22T15:31:15;18.50;59.50
69054;DHT22;56125;52.242;4.756;2024-03-22T15:36:16;18.50;59.50
69054;DHT22;56125;52.242;4.756;2024-03-22T15:41:17;18.50;59.50
69054;DHT22;56125;52.242;4.756;2024-03-22T15:46:20;18.50;59.40
69054;DHT22;56125;52.242;4.756;2024-03-22T15:51:21;18.50;59.10
69054;DHT22;56125;52.242;4.756;2024-03-22T15:56:24;18.50;58.90
69054;DHT22;56125;52.242;4.756;2024-03-22T16:01:25;18.50;58.70
69054;DHT22;56125;52.242;4.756;2024-03-22T16:06:26;18.40;58.50
69054;DHT22;56125;52.242;4.756;2024-03-22T16:11:27;18.50;58.40
69054;DHT22;56125;52.242;4.756;2024-03-22T16:16:29;18.40;58.30
69054;DHT22;56125;52.242;4.756;2024-03-22T16:21:30;18.50;58.10
69054;DHT22;56125;52.242;4.756;2024-03-22T16:26:31;18.40;58.10
69054;DHT22;56125;52.242;4.756;2024-03-22T16:31:32;18.40;58.10
69054;DHT22;56125;52.242;4.756;2024-03-22T16:36:33;18.40;57.90
69054;DHT22;56125;52.242;4.756;2024-03-22T16:41:34;18.40;57.90
69054;DHT22;56125;52.242;4.756;2024-03-22T16:46:35;18.50;57.90
69054;DHT22;56125;52.242;4.756;2024-03-22T16:51:36;18.40;57.40
69054;DHT22;56125;52.242;4.756;2024-03-22T16:56:39;18.40;57.30
69054;DHT22;56125;52.242;4.756;2024-03-22T17:01:40;18.40;57.20
69054;DHT22;56125;52.242;4.756;2024-03-22T17:06:41;18.40;57.00
69054;DHT22;56125;52.242;4.756;2024-03-22T17:11:42;18.40;57.00
69054;DHT22;56125;52.242;4.756;2024-03-22T17:16:43;18.40;56.90
69054;DHT22;56125;52.242;4.756;2024-03-22T17:21:44;18.40;56.80
69054;DHT22;56125;52.242;4.756;2024-03-22T17:26:45;18.30;56.70
69054;DHT22;56125;52.242;4.756;2024-03-22T17:31:46;18.30;56.70
69054;DHT22;56125;52.242;4.756;2024-03-22T17:36:47;18.30;56.80
69054;DHT22;56125;52.242;4.756;2024-03-22T17:41:48;18.30;56.40
69054;DHT22;56125;52.242;4.756;2024-03-22T17:46:49;18.30;57.00
69054;DHT22;56125;52.242;4.756;2024-03-22T17:51:50;18.30;56.80
69054;DHT22;56125;52.242;4.756;2024-03-22T17:56:51;18.30;57.20
69054;DHT22;56125;52.242;4.756;2024-03-22T18:01:53;18.30;57.20
69054;DHT22;56125;52.242;4.756;2024-03-22T18:06:55;18.30;57.30
69054;DHT22;56125;52.242;4.756;2024-03-22T18:11:56;18.30;56.80
69054;DHT22;56125;52.242;4.756;2024-03-22T18:16:57;18.30;56.80
69054;DHT22;56125;52.242;4.756;2024-03-22T18:21:58;18.30;56.60
69054;DHT22;56125;52.242;4.756;2024-03-22T18:27:00;18.30;56.70
69054;DHT22;56125;52.242;4.756;2024-03-22T18:32:01;18.30;56.70
69054;DHT22;56125;52.242;4.756;2024-03-22T18:37:04;18.30;56.80
69054;DHT22;56125;52.242;4.756;2024-03-22T18:42:05;18.30;56.80
69054;DHT22;56125;52.242;4.756;2024-03-22T18:47:07;18.30;56.60
69054;DHT22;56125;52.242;4.756;2024-03-22T18:52:08;18.30;56.60
69054;DHT22;56125;52.242;4.756;2024-03-22T18:57:09;18.30;56.50
69054;DHT22;56125;52.242;4.756;2024-03-22T19:02:10;18.30;56.40
69054;DHT22;56125;52.242;4.756;2024-03-22T19:07:11;18.30;56.10
69054;DHT22;56125;52.242;4.756;2024-03-22T19:12:12;18.20;56.30
69054;DHT22;56125;52.242;4.756;2024-03-22T19:17:14;18.30;56.20
69054;DHT22;56125;52.242;4.756;2024-03-22T19:22:15;18.20;56.10
69054;DHT22;56125;52.242;4.756;2024-03-22T19:27:16;18.20;55.70
69054;DHT22;56125;52.242;4.756;2024-03-22T19:32:17;18.30;55.90
69054;DHT22;56125;52.242;4.756;2024-03-22T19:37:18;18.20;55.60
69054;DHT22;56125;52.242;4.756;2024-03-22T19:42:19;18.20;55.80
69054;DHT22;56125;52.242;4.756;2024-03-22T19:47:20;18.20;55.40
69054;DHT22;56125;52.242;4.756;2024-03-22T19:52:21;18.20;55.50
69054;DHT22;56125;52.242;4.756;2024-03-22T19:57:23;18.20;56.30
69054;DHT22;56125;52.242;4.756;2024-03-22T20:02:24;18.20;56.00
69054;DHT22;56125;52.242;4.756;2024-03-22T20:07:25;18.20;56.10
69054;DHT22;56125;52.242;4.756;2024-03-22T20:12:26;18.20;56.40
69054;DHT22;56125;52.242;4.756;2024-03-22T20:17:27;18.10;55.60
69054;DHT22;56125;52.242;4.756;2024-03-22T20:22:28;18.10;55.40
69054;DHT22;56125;52.242;4.756;2024-03-22T20:27:29;18.10;55.50
69054;DHT22;56125;52.242;4.756;2024-03-22T20:32:30;18.10;55.50
69054;DHT22;56125;52.242;4.756;2024-03-22T20:37:31;18.10;55.50
